Time;durP1;ratioP1;P1;durP2;ratioP2;P2;SDS_P1;SDS_P2;PMS_P1;PMS_P2;Temp;Humidity;BMP_temperature;BMP_pressure;BME280_temperature;BME280_humidity;BME280_pressure;Samples;Min_cycle;Max_cycle;Signal;HPM_P1;HPM_P2
2022/04/10 03:02:40;;;;;;;8.33;7.60;;;2.10;99.90;;;;;;4953242;23;20244;-79
2022/04/10 03:05:07;;;;;;;8.37;7.77;;;2.00;99.90;;;;;;4956132;28;20221;-79
2022/04/10 03:07:33;;;;;;;9.60;8.57;;;1.90;99.90;;;;;;4955417;28;20261;-78
2022/04/10 03:09:58;;;;;;;7.37;6.93;;;1.70;99.90;;;;;;4954605;29;20180;-78
2022/04/10 03:12:24;;;;;;;8.43;7.73;;;1.70;99.90;;;;;;4955601;29;20197;-78
2022/04/10 03:14:50;;;;;;;7.50;7.00;;;1.60;99.90;;;;;;4954353;29;20181;-76
2022/04/10 03:17:16;;;;;;;7.27;6.80;;;1.50;99.90;;;;;;4955271;23;20233;-76
2022/04/10 03:19:41;;;;;;;8.20;7.30;;;1.40;99.90;;;;;;4933571;29;20186;-75
2022/04/10 03:22:07;;;;;;;8.23;7.67;;;1.30;99.90;;;;;;4933606;29;20559;-75
2022/04/10 03:24:33;;;;;;;8.63;7.33;;;1.20;99.90;;;;;;4932502;29;20642;-75
2022/04/10 03:26:59;;;;;;;8.80;7.83;;;1.20;99.90;;;;;;4934979;29;20209;-75
2022/04/10 03:29:25;;;;;;;9.37;8.77;;;1.10;99.90;;;;;;4935725;29;20283;-75
2022/04/10 03:31:50;;;;;;;9.47;8.53;;;1.00;99.90;;;;;;4936779;29;20196;-75
2022/04/10 03:34:16;;;;;;;8.87;8.30;;;1.00;99.90;;;;;;4936010;29;20193;-75
2022/04/10 03:36:42;;;;;;;8.43;8.00;;;0.90;99.90;;;;;;4936102;29;20199;-75
2022/04/10 03:39:07;;;;;;;9.63;8.93;;;0.90;99.90;;;;;;4936735;29;20622;-75
2022/04/10 03:41:33;;;;;;;8.80;8.17;;;0.80;99.90;;;;;;4937124;29;20191;-75
2022/04/10 03:43:59;;;;;;;9.50;8.80;;;0.80;99.90;;;;;;4937085;29;20610;-75
2022/04/10 03:46:25;;;;;;;9.90;9.20;;;0.80;99.90;;;;;;4937091;29;20299;-75
2022/04/10 03:48:50;;;;;;;9.37;8.70;;;0.80;99.90;;;;;;4936202;29;20257;-75
2022/04/10 03:51:16;;;;;;;9.33;8.37;;;0.80;99.90;;;;;;4935892;29;20738;-76
2022/04/10 03:53:42;;;;;;;9.67;8.97;;;0.70;99.90;;;;;;4935600;29;20191;-76
2022/04/10 03:56:07;;;;;;;10.37;9.43;;;0.60;99.90;;;;;;4936705;29;20687;-75
2022/04/10 03:58:33;;;;;;;9.93;9.07;;;0.60;99.90;;;;;;4934976;29;20185;-75
2022/04/10 04:00:59;;;;;;;9.40;8.70;;;0.60;99.90;;;;;;4938713;29;20207;-75
2022/04/10 04:03:25;;;;;;;8.60;7.97;;;0.50;99.90;;;;;;4938747;29;20232;-75
2022/04/10 04:05:51;;;;;;;9.07;8.47;;;0.40;99.90;;;;;;4937056;29;20262;-75
2022/04/10 04:08:17;;;;;;;16.30;15.10;;;0.40;99.90;;;;;;4935908;29;20684;-77
2022/04/10 04:10:43;;;;;;;18.37;17.10;;;0.50;99.90;;;;;;4936654;29;20191;-76
2022/04/10 04:13:08;;;;;;;11.07;10.37;;;0.40;99.90;;;;;;4936683;29;20184;-75
2022/04/10 04:15:34;;;;;;;10.73;9.80;;;0.40;99.90;;;;;;4936200;29;20251;-75
2022/04/10 04:18:00;;;;;;;12.60;9.80;;;0.40;99.90;;;;;;4934554;29;20707;-75
2022/04/10 04:20:26;;;;;;;11.37;10.47;;;0.30;99.90;;;;;;4937444;29;20182;-76
2022/04/10 04:22:54;;;;;;;10.13;9.43;;;0.40;99.90;;;;;;4936687;29;20561;-76
2022/04/10 04:25:20;;;;;;;10.67;9.93;;;0.40;99.90;;;;;;4936904;29;20188;-76
2022/04/10 04:27:46;;;;;;;11.43;10.33;;;0.40;99.90;;;;;;4934783;29;20197;-76
2022/04/10 04:30:12;;;;;;;11.93;10.90;;;0.40;99.90;;;;;;4944238;29;20206;-75
2022/04/10 04:32:38;;;;;;;11.80;10.93;;;0.40;99.90;;;;;;4935479;29;20198;-76
2022/04/10 04:35:04;;;;;;;11.50;10.60;;;0.40;99.90;;;;;;4936496;29;20183;-77
2022/04/10 04:37:30;;;;;;;11.17;10.43;;;0.40;99.90;;;;;;4934354;29;20302;-75
2022/04/10 04:39:55;;;;;;;12.23;11.17;;;0.40;99.90;;;;;;4936954;29;20828;-75
2022/04/10 04:42:21;;;;;;;11.03;9.93;;;0.40;99.90;;;;;;4936237;29;20197;-70
2022/04/10 04:44:47;;;;;;;11.07;9.97;;;0.50;99.90;;;;;;4926334;29;20194;-71
2022/04/10 04:47:13;;;;;;;12.43;11.33;;;0.50;99.90;;;;;;4928372;29;20205;-71
2022/04/10 04:49:38;;;;;;;21.40;16.43;;;0.50;99.90;;;;;;4935705;29;20187;-71
2022/04/10 04:52:05;;;;;;;19.57;14.73;;;0.50;99.90;;;;;;4935435;29;20598;-71
2022/04/10 04:54:30;;;;;;;20.50;16.17;;;0.50;99.90;;;;;;4945342;29;20240;-71
2022/04/10 04:56:56;;;;;;;16.60;15.10;;;0.60;99.90;;;;;;4943742;29;20237;-71
2022/04/10 04:59:22;;;;;;;16.33;13.97;;;0.70;99.90;;;;;;4938599;29;20587;-72
2022/04/10 05:01:48;;;;;;;27.50;18.77;;;0.80;99.90;;;;;;4936319;29;20527;-72
2022/04/10 05:04:14;;;;;;;33.40;21.57;;;1.00;99.90;;;;;;4934660;29;20628;-71
2022/04/10 05:06:40;;;;;;;32.30;22.03;;;1.10;99.90;;;;;;4935367;29;20240;-71
2022/04/10 05:09:06;;;;;;;30.07;20.77;;;1.20;99.90;;;;;;4933474;29;20213;-70
2022/04/10 05:11:33;;;;;;;32.30;23.60;;;1.20;99.90;;;;;;4935490;29;20191;-71
2022/04/10 05:13:58;;;;;;;31.50;22.17;;;1.30;99.90;;;;;;4935046;29;20626;-70
2022/04/10 05:16:24;;;;;;;22.07;18.50;;;1.50;99.90;;;;;;4935161;29;20224;-71
2022/04/10 05:18:50;;;;;;;18.30;16.40;;;1.60;99.90;;;;;;4933837;29;20285;-71
2022/04/10 05:21:17;;;;;;;17.37;15.57;;;1.80;99.90;;;;;;4935411;29;20189;-71
2022/04/10 05:23:43;;;;;;;21.97;16.10;;;2.00;99.90;;;;;;4936981;29;20248;-70
2022/04/10 05:26:09;;;;;;;15.67;12.03;;;2.30;99.90;;;;;;4935632;29;20584;-71
2022/04/10 05:28:35;;;;;;;11.83;10.60;;;2.70;99.90;;;;;;4934931;29;20290;-71
2022/04/10 05:31:04;;;;;;;9.77;8.87;;;3.00;99.90;;;;;;4935512;29;20272;-71
2022/04/10 05:33:33;;;;;;;16.80;15.30;;;3.40;99.90;;;;;;4935227;29;20220;-72
2022/04/10 05:35:59;;;;;;;11.73;10.67;;;3.60;99.90;;;;;;4934934;29;20572;-72
2022/04/10 05:38:25;;;;;;;14.00;12.90;;;4.00;99.90;;;;;;4934328;29;20194;-72
2022/04/10 05:40:54;;;;;;;14.17;13.00;;;4.30;99.90;;;;;;4934430;29;20223;-73
2022/04/10 05:43:21;;;;;;;10.30;9.37;;;4.60;99.90;;;;;;4934571;29;20189;-72
2022/04/10 05:45:47;;;;;;;9.80;9.10;;;5.00;99.90;;;;;;4934922;29;20198;-72
2022/04/10 05:48:13;;;;;;;9.20;8.30;;;5.30;99.90;;;;;;4933767;29;20178;-72
2022/04/10 05:50:39;;;;;;;8.77;8.17;;;5.60;99.90;;;;;;4934607;29;20217;-72
2022/04/10 05:53:05;;;;;;;10.23;9.43;;;5.80;99.90;;;;;;4934874;29;20250;-72
2022/04/10 05:55:31;;;;;;;9.97;8.97;;;6.10;99.90;;;;;;4934787;29;20233;-73
2022/04/10 05:57:58;;;;;;;9.03;8.33;;;6.40;99.90;;;;;;4933865;29;20674;-72
2022/04/10 06:00:24;;;;;;;9.27;8.63;;;6.70;99.90;;;;;;4935203;29;20174;-72
2022/04/10 06:02:50;;;;;;;8.07;7.47;;;6.80;99.90;;;;;;4935010;29;20670;-73
2022/04/10 06:05:18;;;;;;;7.50;6.93;;;7.10;99.90;;;;;;4934242;29;20801;-72
2022/04/10 06:07:44;;;;;;;8.00;7.40;;;7.40;99.90;;;;;;4934060;29;20178;-72
2022/04/10 06:10:10;;;;;;;7.17;6.63;;;7.60;99.90;;;;;;4933333;29;20630;-73
2022/04/10 06:12:35;;;;;;;7.90;7.40;;;7.70;99.90;;;;;;4936952;29;20194;-72
2022/04/10 06:15:02;;;;;;;7.23;6.70;;;7.70;99.90;;;;;;4934722;29;20297;-72
2022/04/10 06:17:28;;;;;;;8.17;7.50;;;7.70;99.90;;;;;;4933971;29;20224;-73
2022/04/10 06:19:54;;;;;;;8.60;7.87;;;8.10;99.90;;;;;;4934756;29;20190;-73
2022/04/10 06:22:19;;;;;;;8.63;7.23;;;8.30;99.90;;;;;;4933324;29;20198;-72
2022/04/10 06:24:45;;;;;;;7.90;7.13;;;8.70;99.90;;;;;;4932776;29;20190;-72
2022/04/10 06:27:11;;;;;;;8.40;7.90;;;8.80;99.90;;;;;;4932705;29;20621;-72
2022/04/10 06:29:37;;;;;;;9.10;8.50;;;9.00;99.90;;;;;;4934707;29;20643;-73
2022/04/10 06:32:03;;;;;;;7.63;7.03;;;9.10;99.90;;;;;;4934764;29;20178;-72
2022/04/10 06:34:29;;;;;;;10.47;9.83;;;9.40;99.90;;;;;;4934469;29;20178;-72
2022/04/10 06:36:54;;;;;;;12.07;11.10;;;9.80;99.90;;;;;;4949148;29;20398;-72
2022/04/10 06:39:20;;;;;;;8.77;8.03;;;10.10;99.90;;;;;;4945985;29;20214;-72
2022/04/10 06:41:46;;;;;;;7.90;7.10;;;10.10;99.90;;;;;;4921336;29;20663;-72
2022/04/10 06:44:12;;;;;;;7.83;7.17;;;10.00;99.90;;;;;;4915594;29;20187;-73
2022/04/10 06:46:37;;;;;;;6.50;6.00;;;9.90;99.90;;;;;;4923321;29;20220;-73
2022/04/10 06:49:03;;;;;;;8.57;7.77;;;9.50;99.90;;;;;;4932276;29;20186;-73
2022/04/10 06:51:29;;;;;;;9.63;9.07;;;9.10;99.90;;;;;;4923475;29;20250;-73
2022/04/10 06:53:55;;;;;;;9.67;8.97;;;8.50;99.90;;;;;;4912558;29;20250;-72
2022/04/10 06:56:20;;;;;;;8.83;8.00;;;8.40;99.90;;;;;;4919464;29;20298;-73
2022/04/10 06:58:47;;;;;;;8.27;6.97;;;8.30;99.90;;;;;;4945213;28;20241;-76
2022/04/10 07:01:13;;;;;;;7.30;6.80;;;8.10;99.90;;;;;;4947314;29;20202;-76
2022/04/10 07:03:39;;;;;;;8.43;7.60;;;7.80;99.90;;;;;;4942680;29;20190;-76
2022/04/10 07:06:05;;;;;;;7.57;6.80;;;7.80;99.90;;;;;;4939735;29;20297;-80
2022/04/10 07:08:32;;;;;;;8.23;7.47;;;7.80;99.90;;;;;;4940779;29;20189;-76
2022/04/10 07:10:59;;;;;;;10.30;7.20;;;7.90;99.90;;;;;;4939204;29;20261;-75
2022/04/10 07:13:25;;;;;;;7.87;7.20;;;8.00;99.90;;;;;;4935770;29;20228;-75
2022/04/10 07:15:52;;;;;;;6.97;6.47;;;8.10;99.90;;;;;;4934565;29;20278;-74
2022/04/10 07:18:19;;;;;;;8.40;7.70;;;8.30;99.90;;;;;;4933781;29;20263;-73
2022/04/10 07:20:45;;;;;;;7.60;7.10;;;8.20;99.90;;;;;;4930927;29;20186;-74
2022/04/10 07:25:57;;;;;;;10.77;7.03;;;8.40;99.90;;;;;;4917264;29;20282;-74
2022/04/10 07:28:23;;;;;;;7.47;6.97;;;8.40;99.90;;;;;;4931880;29;20204;-74
2022/04/10 07:30:49;;;;;;;8.03;7.37;;;8.60;99.90;;;;;;4933885;29;20194;-73
2022/04/10 07:33:15;;;;;;;7.53;7.03;;;9.00;99.90;;;;;;4932573;29;20181;-74
2022/04/10 07:35:42;;;;;;;7.07;6.50;;;9.20;99.90;;;;;;4933608;29;20265;-74
2022/04/10 07:38:10;;;;;;;7.87;7.10;;;9.40;99.90;;;;;;4931645;29;20309;-74
2022/04/10 07:40:39;;;;;;;10.90;10.20;;;9.90;99.90;;;;;;4933412;29;20220;-75
2022/04/10 07:43:05;;;;;;;8.17;7.57;;;10.20;99.90;;;;;;4933562;29;20185;-75
2022/04/10 07:48:16;;;;;;;8.13;7.53;;;10.30;99.90;;;;;;4918940;29;20252;-73
2022/04/10 07:50:42;;;;;;;9.13;8.20;;;10.00;99.90;;;;;;4933581;29;20198;-74
2022/04/10 07:53:08;;;;;;;8.13;7.43;;;10.00;99.90;;;;;;4933298;29;20564;-74
2022/04/10 07:55:34;;;;;;;8.33;7.60;;;10.00;99.90;;;;;;4933410;29;20198;-74
2022/04/10 07:58:00;;;;;;;8.23;7.63;;;9.80;99.90;;;;;;4932495;29;20210;-75
2022/04/10 08:00:26;;;;;;;9.57;8.73;;;9.70;99.90;;;;;;4933392;29;20178;-74
2022/04/10 08:02:52;;;;;;;9.43;8.63;;;9.90;99.90;;;;;;4933259;29;20273;-75
2022/04/10 08:05:19;;;;;;;7.47;6.87;;;10.20;99.90;;;;;;4948523;29;20202;-74
2022/04/10 08:07:46;;;;;;;6.87;6.37;;;10.30;99.90;;;;;;4939642;29;20282;-74
2022/04/10 08:10:13;;;;;;;6.60;6.03;;;10.30;99.90;;;;;;4933190;29;20186;-74
2022/04/10 08:12:39;;;;;;;7.20;6.50;;;10.50;99.90;;;;;;4935280;29;20210;-74
2022/04/10 08:15:06;;;;;;;7.07;6.57;;;11.00;99.90;;;;;;4935338;29;20178;-74
2022/04/10 08:17:32;;;;;;;6.37;5.77;;;10.90;99.90;;;;;;4935380;29;20226;-74
2022/04/10 08:19:58;;;;;;;6.43;6.03;;;10.80;99.90;;;;;;4936074;29;20190;-74
2022/04/10 08:22:24;;;;;;;6.70;6.10;;;10.40;99.90;;;;;;4937145;29;20190;-74
2022/04/10 08:24:50;;;;;;;7.07;6.50;;;10.00;99.90;;;;;;4936516;29;20185;-74
2022/04/10 08:27:16;;;;;;;6.73;6.33;;;10.00;99.90;;;;;;4934824;29;20198;-74
2022/04/10 08:29:42;;;;;;;6.90;6.30;;;9.90;99.90;;;;;;4937649;29;20182;-74
2022/04/10 08:32:08;;;;;;;6.70;6.30;;;9.70;99.90;;;;;;4936698;29;20196;-74
2022/04/10 08:34:34;;;;;;;6.20;5.70;;;9.60;99.90;;;;;;4936218;29;20246;-74
2022/04/10 08:37:05;;;;;;;8.93;6.90;;;9.60;99.90;;;;;;4935213;29;20206;-74
2022/04/10 08:39:35;;;;;;;7.00;6.30;;;9.70;99.90;;;;;;4915953;29;20695;-74
2022/04/10 08:42:02;;;;;;;6.97;6.33;;;9.80;99.90;;;;;;4931704;29;20187;-75
2022/04/10 08:44:29;;;;;;;6.83;6.23;;;9.90;99.90;;;;;;4931744;29;20175;-75
2022/04/10 08:46:56;;;;;;;7.13;5.93;;;10.20;99.90;;;;;;4924957;29;20231;-73
2022/04/10 08:49:25;;;;;;;6.60;5.80;;;10.40;99.90;;;;;;4936174;29;20187;-73
2022/04/10 08:51:52;;;;;;;7.23;6.20;;;10.50;99.90;;;;;;4936116;29;20217;-73
2022/04/10 08:54:21;;;;;;;8.57;5.87;;;10.90;99.90;;;;;;4936306;29;20309;-74
2022/04/10 08:56:47;;;;;;;7.23;6.23;;;11.60;99.90;;;;;;4949935;29;20194;-73
2022/04/10 08:59:13;;;;;;;6.23;5.73;;;11.60;99.90;;;;;;4953673;29;20250;-73
2022/04/10 09:01:39;;;;;;;5.87;5.47;;;11.00;99.90;;;;;;4940253;29;20550;-75
2022/04/10 09:04:05;;;;;;;7.10;6.50;;;10.70;99.90;;;;;;4937759;29;20191;-73
2022/04/10 09:06:32;;;;;;;6.67;6.17;;;10.70;99.90;;;;;;4936619;29;20290;-73
2022/04/10 09:09:16;;;;;;;6.63;6.03;;;10.60;99.90;;;;;;4935608;29;20650;-73
2022/04/10 09:11:43;;;;;;;6.27;5.77;;;10.40;99.90;;;;;;4933080;29;20187;-74
2022/04/10 09:14:09;;;;;;;6.60;6.07;;;10.40;99.90;;;;;;4916836;29;20247;-73
2022/04/10 09:16:35;;;;;;;6.93;6.17;;;10.30;99.90;;;;;;4916659;29;20214;-73
2022/04/10 09:19:10;;;;;;;6.90;6.27;;;10.40;99.90;;;;;;4916476;29;20738;-73
2022/04/10 09:21:38;;;;;;;6.73;6.23;;;11.00;99.90;;;;;;4916606;29;20191;-74
2022/04/10 09:24:07;;;;;;;6.27;5.70;;;11.30;99.90;;;;;;4915335;29;20183;-75
2022/04/10 09:26:48;;;;;;;6.70;6.23;;;11.10;99.90;;;;;;4930160;29;20218;-74
2022/04/10 09:29:16;;;;;;;7.00;6.30;;;11.20;99.90;;;;;;4935729;29;20186;-73
2022/04/10 09:31:42;;;;;;;7.83;6.17;;;11.30;99.90;;;;;;4935329;29;20180;-75
2022/04/10 09:34:13;;;;;;;6.67;6.10;;;11.40;99.90;;;;;;4935334;29;20615;-74
2022/04/10 09:36:42;;;;;;;6.83;6.33;;;11.70;99.90;;;;;;4933774;29;20248;-74
2022/04/10 09:39:16;;;;;;;7.77;6.70;;;12.20;99.90;;;;;;4933411;29;20801;-74
2022/04/10 09:41:43;;;;;;;7.13;6.53;;;12.40;99.40;;;;;;4936230;29;20185;-74
2022/04/10 09:44:20;;;;;;;7.20;6.60;;;12.50;98.30;;;;;;4947232;29;20183;-73
2022/04/10 09:46:59;;;;;;;7.73;6.90;;;12.30;98.70;;;;;;4945124;29;20296;-74
2022/04/10 09:49:34;;;;;;;7.60;6.30;;;12.10;99.00;;;;;;4935292;29;20594;-75
2022/04/10 09:52:06;;;;;;;7.50;6.80;;;11.90;99.10;;;;;;4933735;29;20299;-74
2022/04/10 09:54:39;;;;;;;7.73;7.03;;;12.00;96.80;;;;;;4934942;29;20609;-74
2022/04/10 09:57:25;;;;;;;8.37;6.77;;;12.10;97.40;;;;;;4933096;29;20209;-74
2022/04/10 09:59:52;;;;;;;6.80;6.20;;;11.70;99.10;;;;;;4934403;29;20277;-74
2022/04/10 10:02:19;;;;;;;8.23;6.93;;;11.70;98.90;;;;;;4934766;29;20183;-75
2022/04/10 10:04:47;;;;;;;8.37;7.57;;;11.60;99.50;;;;;;4933629;29;20194;-74
2022/04/10 10:07:17;;;;;;;8.00;7.20;;;11.50;99.70;;;;;;4933890;29;20253;-74
2022/04/10 10:09:46;;;;;;;8.03;7.30;;;11.20;99.90;;;;;;4933551;29;20185;-74
2022/04/10 10:12:13;;;;;;;8.37;7.63;;;10.70;99.40;;;;;;4934491;29;20242;-74
2022/04/10 10:14:39;;;;;;;8.90;6.80;;;10.50;99.90;;;;;;4934745;29;20290;-74
2022/04/10 10:17:07;;;;;;;7.13;6.50;;;10.50;99.90;;;;;;4933809;29;20643;-74
2022/04/10 10:19:35;;;;;;;7.13;6.53;;;10.60;99.90;;;;;;4934373;29;20249;-74
2022/04/10 10:22:03;;;;;;;8.17;7.40;;;11.00;99.90;;;;;;4934423;29;20186;-74
2022/04/10 10:24:37;;;;;;;7.43;6.97;;;11.70;99.90;;;;;;4934563;29;20208;-74
2022/04/10 10:27:12;;;;;;;7.53;6.83;;;12.40;98.50;;;;;;4933566;29;20685;-74
2022/04/10 10:30:01;;;;;;;7.83;7.17;;;12.90;97.70;;;;;;4934025;29;20215;-74
2022/04/10 10:32:48;;;;;;;7.87;7.20;;;13.40;95.60;;;;;;4934278;29;20599;-74
2022/04/10 10:35:33;;;;;;;7.20;6.50;;;13.20;94.80;;;;;;4933493;29;20186;-74
2022/04/10 10:38:02;;;;;;;7.30;6.70;;;12.80;94.50;;;;;;4932643;29;20221;-74
2022/04/10 10:40:28;;;;;;;6.70;6.30;;;12.40;96.20;;;;;;4934179;29;20178;-74
2022/04/10 10:43:01;;;;;;;7.87;7.17;;;11.70;96.70;;;;;;4934009;29;20182;-74
2022/04/10 10:45:33;;;;;;;7.97;6.30;;;11.40;96.50;;;;;;4933675;29;20186;-74
2022/04/10 10:48:25;;;;;;;7.97;7.33;;;11.20;98.10;;;;;;4933642;29;20229;-74
2022/04/10 10:50:52;;;;;;;14.97;12.30;;;10.70;99.90;;;;;;4932941;29;20190;-73
2022/04/10 10:53:37;;;;;;;9.03;7.97;;;10.40;99.90;;;;;;4932887;29;20185;-74
2022/04/10 10:56:05;;;;;;;9.87;8.93;;;9.80;99.90;;;;;;4947600;29;20206;-74
2022/04/10 10:58:31;;;;;;;11.23;8.63;;;9.40;99.90;;;;;;4943992;29;20221;-74
2022/04/10 11:01:04;;;;;;;9.97;9.07;;;10.00;99.90;;;;;;4933824;29;20185;-74
2022/04/10 11:03:30;;;;;;;8.10;7.50;;;10.20;99.90;;;;;;4934233;29;20197;-74
2022/04/10 11:06:14;;;;;;;9.17;8.37;;;9.90;99.90;;;;;;4932607;29;20198;-75
2022/04/10 11:08:40;;;;;;;5.97;5.57;;;9.20;99.90;;;;;;4933711;29;20325;-74
2022/04/10 11:11:07;;;;;;;11.80;11.10;;;7.70;99.90;;;;;;4934058;29;20186;-74
2022/04/10 11:13:42;;;;;;;7.30;6.70;;;6.40;99.90;;;;;;4934265;29;20186;-75
2022/04/10 11:16:13;;;;;;;8.70;8.17;;;6.10;99.90;;;;;;4933500;29;20220;-75
2022/04/10 11:18:50;;;;;;;8.70;8.10;;;6.20;99.90;;;;;;4933415;29;20214;-75
2022/04/10 11:21:20;;;;;;;7.67;7.10;;;6.70;99.90;;;;;;4934595;29;20182;-74
2022/04/10 11:23:47;;;;;;;7.30;6.80;;;7.80;99.90;;;;;;4935436;29;20187;-74
2022/04/10 11:26:15;;;;;;;6.60;6.17;;;9.40;99.90;;;;;;4934943;29;20241;-75
2022/04/10 11:29:00;;;;;;;10.27;9.67;;;10.70;99.90;;;;;;4933547;29;20538;-75
2022/04/10 11:31:44;;;;;;;6.23;5.73;;;11.80;99.90;;;;;;4932499;29;20607;-74
2022/04/10 11:34:14;;;;;;;6.60;6.10;;;12.60;99.90;;;;;;4933748;29;20564;-74
2022/04/10 11:36:55;;;;;;;7.93;7.33;;;13.30;99.90;;;;;;4933601;29;20205;-74
2022/04/10 11:39:29;;;;;;;6.20;5.70;;;14.30;99.90;;;;;;4933328;29;20264;-75
2022/04/10 11:42:07;;;;;;;6.60;6.10;;;14.10;99.90;;;;;;4933621;29;20186;-75
2022/04/10 11:44:33;;;;;;;7.20;6.50;;;14.30;99.90;;;;;;4932772;29;20185;-74
2022/04/10 11:47:00;;;;;;;7.30;6.43;;;14.30;99.90;;;;;;4934111;29;20205;-74
2022/04/10 11:49:27;;;;;;;6.90;6.30;;;13.50;99.90;;;;;;4955308;29;20282;-74
2022/04/10 11:52:00;;;;;;;6.83;6.23;;;12.70;99.90;;;;;;4959140;29;20210;-75
2022/04/10 11:54:27;;;;;;;7.77;7.13;;;11.60;99.90;;;;;;4955650;29;20261;-74
2022/04/10 11:56:53;;;;;;;7.40;6.70;;;10.90;99.90;;;;;;4927746;29;20232;-74
2022/04/10 11:59:23;;;;;;;7.33;6.73;;;11.10;99.90;;;;;;4936289;29;20305;-75
2022/04/10 12:01:49;;;;;;;8.80;5.97;;;12.10;99.90;;;;;;4936645;29;20565;-75
2022/04/10 12:04:20;;;;;;;6.83;6.33;;;13.30;99.90;;;;;;4936519;29;20214;-75
2022/04/10 12:06:47;;;;;;;8.63;7.30;;;14.50;99.90;;;;;;4934714;29;20206;-75
2022/04/10 12:09:14;;;;;;;7.03;6.60;;;14.60;98.50;;;;;;4936522;29;20187;-75
2022/04/10 12:11:41;;;;;;;7.67;6.93;;;14.20;96.90;;;;;;4935846;29;20190;-75
2022/04/10 12:14:18;;;;;;;7.10;6.57;;;13.60;98.20;;;;;;4935275;29;20273;-75
2022/04/10 12:16:44;;;;;;;7.87;7.10;;;12.90;98.50;;;;;;4928475;29;20263;-74
2022/04/10 12:19:09;;;;;;;8.83;7.93;;;12.30;99.90;;;;;;4933754;29;20221;-75
2022/04/10 12:21:35;;;;;;;9.20;8.43;;;12.50;99.30;;;;;;4936705;29;20272;-75
2022/04/10 12:24:03;;;;;;;8.77;7.87;;;12.00;99.90;;;;;;4936778;29;20182;-74
2022/04/10 12:26:33;;;;;;;7.37;6.67;;;11.50;99.90;;;;;;4936557;29;20194;-74
2022/04/10 12:28:59;;;;;;;6.67;6.07;;;11.20;99.90;;;;;;4934598;29;20276;-74
2022/04/10 12:31:25;;;;;;;12.53;10.50;;;11.00;99.90;;;;;;4935914;29;20266;-74
2022/04/10 12:33:51;;;;;;;12.50;11.07;;;10.90;99.90;;;;;;4935990;29;20287;-74
2022/04/10 12:36:23;;;;;;;12.87;10.03;;;10.60;99.90;;;;;;4935722;29;20683;-74
2022/04/10 12:38:53;;;;;;;8.00;7.30;;;10.50;99.90;;;;;;4923036;29;20222;-74
2022/04/10 12:41:31;;;;;;;8.03;7.33;;;10.20;99.90;;;;;;4921228;29;20254;-75
2022/04/10 12:44:07;;;;;;;9.13;8.20;;;9.70;99.90;;;;;;4935792;29;20260;-74
2022/04/10 12:46:36;;;;;;;8.37;7.73;;;8.80;99.90;;;;;;4936525;29;20202;-75
2022/04/10 12:49:13;;;;;;;8.87;8.17;;;8.30;99.90;;;;;;4937529;29;20178;-74
2022/04/10 12:52:00;;;;;;;9.33;8.73;;;8.50;99.90;;;;;;4938175;29;20206;-78
2022/04/10 12:54:50;;;;;;;5.57;5.20;;;10.20;99.90;;;;;;4941790;29;20190;-78
2022/04/10 12:57:26;;;;;;;6.93;6.47;;;11.70;99.90;;;;;;4949363;29;20210;-78
2022/04/10 12:59:53;;;;;;;5.63;5.33;;;12.00;99.90;;;;;;4942168;29;20201;-84
2022/04/10 13:02:24;;;;;;;7.30;6.30;;;11.50;99.90;;;;;;4941197;29;20179;-74
2022/04/10 13:04:54;;;;;;;6.20;5.80;;;11.00;99.90;;;;;;4936075;29;20195;-74
2022/04/10 13:07:20;;;;;;;7.57;6.20;;;10.60;99.90;;;;;;4935309;29;20210;-68
2022/04/10 13:10:08;;;;;;;8.00;7.30;;;10.40;99.90;;;;;;4935651;29;20187;-69
2022/04/10 13:12:37;;;;;;;6.47;5.83;;;10.50;99.90;;;;;;4934972;29;20190;-69
2022/04/10 13:15:05;;;;;;;7.37;6.70;;;10.60;99.90;;;;;;4933838;29;20187;-68
2022/04/10 13:17:39;;;;;;;6.47;5.90;;;11.40;99.90;;;;;;4934742;29;20233;-68
2022/04/10 13:20:10;;;;;;;5.83;5.33;;;13.00;99.90;;;;;;4935491;29;20186;-68
2022/04/10 13:22:40;;;;;;;5.30;5.00;;;13.40;99.90;;;;;;4934437;29;20175;-68
2022/04/10 13:25:08;;;;;;;6.30;5.73;;;14.00;99.90;;;;;;4919286;29;20194;-69
2022/04/10 13:27:33;;;;;;;5.47;5.10;;;14.90;97.70;;;;;;4916909;29;20203;-73
2022/04/10 13:30:00;;;;;;;5.37;4.97;;;14.90;96.10;;;;;;4929417;29;20647;-70
2022/04/10 13:32:26;;;;;;;5.33;5.03;;;15.60;93.00;;;;;;4931216;29;20214;-70
2022/04/10 13:34:53;;;;;;;5.23;4.83;;;16.50;85.40;;;;;;4935148;29;20230;-70
2022/04/10 13:37:20;;;;;;;4.87;4.40;;;15.70;83.60;;;;;;4933699;29;20265;-70
2022/04/10 13:39:47;;;;;;;5.00;4.60;;;16.00;81.90;;;;;;4933850;29;20234;-70
2022/04/10 13:42:14;;;;;;;5.03;4.73;;;15.90;82.60;;;;;;4933431;29;20174;-70
2022/04/10 13:44:39;;;;;;;4.97;4.67;;;15.50;83.50;;;;;;4935496;29;20214;-70
2022/04/10 13:47:05;;;;;;;5.60;5.00;;;14.90;84.70;;;;;;4935238;29;20202;-70
2022/04/10 13:49:31;;;;;;;5.50;5.03;;;14.40;83.60;;;;;;4934468;29;20240;-70
2022/04/10 13:52:00;;;;;;;5.80;5.40;;;15.40;81.20;;;;;;4935081;29;20183;-70
2022/04/10 13:54:26;;;;;;;5.03;4.73;;;16.90;77.60;;;;;;4934779;29;20226;-70
2022/04/10 13:56:52;;;;;;;5.70;5.13;;;16.90;74.90;;;;;;4934360;29;20214;-70
2022/04/10 13:59:18;;;;;;;5.47;4.97;;;16.10;76.00;;;;;;4934222;29;20953;-70
2022/04/10 14:01:43;;;;;;;4.90;4.60;;;15.70;77.40;;;;;;4934723;29;20265;-70
2022/04/10 14:04:10;;;;;;;4.67;4.33;;;16.50;76.50;;;;;;4933506;29;20701;-70
2022/04/10 14:06:36;;;;;;;5.33;4.83;;;17.00;72.60;;;;;;4934428;29;20202;-70
2022/04/10 14:09:02;;;;;;;6.17;5.67;;;17.40;71.90;;;;;;4933199;29;20187;-70
2022/04/10 14:11:29;;;;;;;4.77;4.47;;;17.20;70.70;;;;;;4932941;29;20570;-71
2022/04/10 14:13:55;;;;;;;4.87;4.57;;;16.90;73.70;;;;;;4934423;29;20293;-70
2022/04/10 14:16:21;;;;;;;4.87;4.57;;;16.00;73.80;;;;;;4934209;29;20221;-70
2022/04/10 14:18:47;;;;;;;4.93;4.63;;;15.50;76.10;;;;;;4933580;29;20709;-70
2022/04/10 14:21:13;;;;;;;5.67;5.20;;;14.90;77.00;;;;;;4934274;29;20178;-70
2022/04/10 14:23:39;;;;;;;5.27;4.90;;;14.30;79.90;;;;;;4934260;29;20182;-70
2022/04/10 14:26:07;;;;;;;8.33;5.37;;;13.60;84.00;;;;;;4934045;29;20544;-70
2022/04/10 14:28:35;;;;;;;5.80;5.30;;;12.90;85.90;;;;;;4933552;29;20273;-70
2022/04/10 14:31:01;;;;;;;5.87;5.47;;;12.90;84.30;;;;;;4934502;29;20760;-70
2022/04/10 14:33:26;;;;;;;4.90;4.53;;;13.30;84.50;;;;;;4934025;29;20730;-70
2022/04/10 14:35:52;;;;;;;5.33;4.83;;;13.50;84.70;;;;;;4934225;29;20309;-70
2022/04/10 14:38:18;;;;;;;5.60;5.13;;;13.00;85.20;;;;;;4933363;29;20237;-70
2022/04/10 14:40:43;;;;;;;5.80;5.23;;;12.80;86.00;;;;;;4934066;29;20241;-70
2022/04/10 14:43:10;;;;;;;5.70;4.57;;;13.30;86.20;;;;;;4934439;29;20178;-70
2022/04/10 14:45:36;;;;;;;5.90;5.47;;;13.80;84.10;;;;;;4933721;29;20353;-70
2022/04/10 14:48:02;;;;;;;5.67;5.10;;;14.00;82.80;;;;;;4934135;29;20733;-71
2022/04/10 14:50:28;;;;;;;4.90;4.60;;;14.70;78.60;;;;;;4934227;29;20289;-70
2022/04/10 14:52:55;;;;;;;5.10;4.80;;;14.90;78.40;;;;;;4934683;29;20878;-71
2022/04/10 14:55:21;;;;;;;5.37;4.97;;;15.30;76.80;;;;;;4934208;29;20213;-72
2022/04/10 14:57:47;;;;;;;6.03;5.60;;;15.90;72.90;;;;;;4950086;29;20214;-71
2022/04/10 15:00:13;;;;;;;7.87;6.70;;;16.50;68.30;;;;;;4952965;29;20186;-71
2022/04/10 15:02:39;;;;;;;6.63;6.07;;;17.30;66.00;;;;;;4945863;29;20195;-70
2022/04/10 15:05:06;;;;;;;7.17;6.63;;;17.30;65.00;;;;;;4937235;29;20545;-71
2022/04/10 15:07:33;;;;;;;6.97;6.37;;;15.80;67.90;;;;;;4938873;29;20213;-70
2022/04/10 15:09:59;;;;;;;5.03;4.70;;;14.50;70.70;;;;;;4939457;29;20210;-70
2022/04/10 15:12:25;;;;;;;5.37;4.97;;;13.70;72.80;;;;;;4934055;29;20193;-69
2022/04/10 15:14:53;;;;;;;5.30;4.90;;;13.00;75.30;;;;;;4933484;29;20745;-69
2022/04/10 15:17:22;;;;;;;7.63;5.10;;;12.30;78.90;;;;;;4932964;29;20702;-69
2022/04/10 15:19:48;;;;;;;5.20;4.90;;;11.80;81.40;;;;;;4955057;23;20305;-77
2022/04/10 15:22:14;;;;;;;5.00;4.60;;;11.60;84.50;;;;;;4937665;29;20189;-77
2022/04/10 15:24:40;;;;;;;6.53;5.17;;;11.80;86.10;;;;;;4938096;29;20183;-77
2022/04/10 15:27:10;;;;;;;8.20;5.30;;;12.30;84.70;;;;;;4951305;29;20166;-76
2022/04/10 15:29:37;;;;;;;5.47;5.13;;;12.50;82.70;;;;;;4932956;29;20236;-77
2022/04/10 15:32:04;;;;;;;6.70;6.33;;;12.40;84.90;;;;;;4918675;29;20191;-77
2022/04/10 15:34:29;;;;;;;6.40;5.97;;;12.20;86.40;;;;;;4917812;29;20206;-77
2022/04/10 15:36:55;;;;;;;6.77;6.27;;;12.10;85.30;;;;;;4918484;29;20569;-76
2022/04/10 15:39:21;;;;;;;4.80;4.50;;;12.80;88.00;;;;;;4918233;29;20230;-77
2022/04/10 15:41:48;;;;;;;5.03;4.63;;;14.80;79.10;;;;;;4918556;29;20564;-77
2022/04/10 15:44:15;;;;;;;7.17;4.53;;;16.40;73.40;;;;;;4918712;29;20179;-75
2022/04/10 15:46:42;;;;;;;16.00;14.40;;;16.40;70.30;;;;;;4918680;29;20564;-77
2022/04/10 15:49:08;;;;;;;9.10;8.17;;;16.00;69.80;;;;;;4918086;29;20270;-75
2022/04/10 15:51:34;;;;;;;14.03;12.73;;;14.60;71.60;;;;;;4918451;29;20183;-75
2022/04/10 15:54:00;;;;;;;14.27;12.83;;;14.00;74.50;;;;;;4917083;29;20191;-75
2022/04/10 15:56:26;;;;;;;21.50;18.60;;;14.70;75.40;;;;;;4918176;29;20187;-76
2022/04/10 15:58:52;;;;;;;26.93;23.90;;;15.60;71.10;;;;;;4917303;29;20211;-76